createdAt,value
2022-10-07T00:01:52.868Z,100.00
2022-10-07T00:04:56.474Z,100.00
2022-10-07T00:08:01.491Z,100.00
2022-10-07T00:11:08.441Z,100.00
2022-10-07T00:14:12.509Z,100.00
2022-10-07T00:17:16.273Z,100.00
2022-10-07T00:20:19.850Z,100.00
2022-10-07T00:23:24.965Z,100.00
2022-10-07T00:26:31.707Z,100.00
2022-10-07T00:29:35.238Z,100.00
2022-10-07T00:32:38.958Z,100.00
2022-10-07T00:35:42.569Z,100.00
2022-10-07T00:38:52.475Z,100.00
2022-10-07T00:41:56.147Z,100.00
2022-10-07T00:44:59.694Z,100.00
2022-10-07T00:48:03.379Z,100.00
2022-10-07T00:51:10.158Z,100.00
2022-10-07T00:54:19.819Z,100.00
2022-10-07T00:57:25.619Z,100.00
2022-10-07T01:00:31.224Z,100.00
2022-10-07T01:03:37.924Z,100.00
2022-10-07T01:06:43.031Z,100.00
2022-10-07T01:09:50.781Z,100.00
2022-10-07T01:13:06.161Z,100.00
2022-10-07T01:16:21.812Z,100.00
2022-10-07T01:19:56.364Z,100.00
2022-10-07T01:23:20.339Z,100.00
2022-10-07T01:26:57.405Z,100.00
2022-10-07T01:30:05.892Z,100.00
2022-10-07T01:33:17.519Z,100.00
2022-10-07T01:36:26.345Z,100.00
2022-10-07T01:39:37.655Z,100.00
2022-10-07T01:42:42.879Z,100.00
2022-10-07T01:45:47.531Z,100.00
2022-10-07T01:48:51.796Z,100.00
2022-10-07T01:52:15.574Z,100.00
2022-10-07T01:55:43.386Z,100.00
2022-10-07T01:59:17.431Z,100.00
2022-10-07T02:02:36.536Z,100.00
2022-10-07T02:05:52.372Z,100.00
2022-10-07T02:09:00.240Z,100.00
2022-10-07T02:12:16.616Z,100.00
2022-10-07T02:15:27.375Z,100.00
2022-10-07T02:18:33.734Z,100.00
2022-10-07T02:21:40.412Z,100.00
2022-10-07T02:24:47.636Z,100.00
2022-10-07T02:27:56.127Z,100.00
2022-10-07T02:31:05.281Z,100.00
2022-10-07T02:34:20.000Z,100.00
2022-10-07T02:37:29.888Z,100.00
2022-10-07T02:40:41.001Z,100.00
2022-10-07T02:43:53.437Z,100.00
2022-10-07T02:47:06.996Z,100.00
2022-10-07T02:50:15.878Z,100.00
2022-10-07T02:53:21.871Z,100.00
2022-10-07T02:56:29.334Z,100.00
2022-10-07T02:59:37.732Z,100.00
2022-10-07T03:02:52.220Z,100.00
2022-10-07T03:05:56.554Z,100.00
2022-10-07T03:09:00.270Z,100.00
2022-10-07T03:12:03.902Z,100.00
2022-10-07T03:15:09.091Z,100.00
2022-10-07T03:18:28.496Z,100.00
2022-10-07T03:21:34.373Z,100.00
2022-10-07T03:24:39.383Z,100.00
2022-10-07T03:27:43.809Z,100.00
2022-10-07T03:30:47.842Z,100.00
2022-10-07T03:33:53.127Z,100.00
2022-10-07T03:36:56.820Z,100.00
2022-10-07T03:40:00.552Z,100.00
2022-10-07T03:43:04.918Z,100.00
2022-10-07T03:46:08.767Z,100.00
2022-10-07T03:49:13.696Z,100.00
2022-10-07T03:52:17.377Z,100.00
2022-10-07T03:55:20.983Z,100.00
2022-10-07T03:58:25.042Z,100.00
2022-10-07T04:01:31.785Z,100.00
2022-10-07T04:04:38.811Z,100.00
2022-10-07T04:07:43.513Z,100.00
2022-10-07T04:10:47.327Z,100.00
2022-10-07T04:13:51.083Z,100.00
2022-10-07T04:16:54.949Z,100.00
2022-10-07T04:19:59.942Z,100.00
2022-10-07T04:23:03.562Z,100.00
2022-10-07T04:26:10.395Z,100.00
2022-10-07T04:29:14.204Z,100.00
2022-10-07T04:32:20.479Z,100.00
2022-10-07T04:35:25.901Z,100.00
2022-10-07T04:38:31.094Z,100.00
2022-10-07T04:41:35.177Z,100.00
2022-10-07T04:44:38.654Z,100.00
2022-10-07T04:47:44.022Z,100.00
2022-10-07T04:50:51.861Z,100.00
2022-10-07T04:53:57.008Z,100.00
2022-10-07T04:57:00.835Z,100.00
2022-10-07T05:00:05.298Z,100.00
2022-10-07T05:03:08.879Z,100.00
2022-10-07T05:06:13.762Z,100.00
2022-10-07T05:09:17.428Z,100.00
2022-10-07T05:12:21.499Z,100.00
2022-10-07T05:15:25.076Z,100.00
2022-10-07T05:18:30.426Z,100.00
2022-10-07T05:21:35.657Z,100.00
2022-10-07T05:24:39.643Z,100.00
2022-10-07T05:27:43.422Z,100.00
2022-10-07T05:30:47.208Z,100.00
2022-10-07T05:33:50.847Z,100.00
2022-10-07T05:36:55.821Z,100.00
2022-10-07T05:39:59.537Z,100.00
2022-10-07T05:43:03.211Z,100.00
2022-10-07T05:46:11.463Z,100.00
2022-10-07T05:49:17.491Z,100.00
2022-10-07T05:52:22.928Z,100.00
2022-10-07T06:05:51.952Z,100.00
2022-10-07T06:09:18.143Z,100.00
2022-10-07T06:12:39.342Z,100.00
2022-10-07T06:15:42.869Z,100.00
2022-10-07T06:18:47.809Z,100.00
2022-10-07T06:21:51.944Z,100.00
2022-10-07T06:24:58.926Z,100.00
2022-10-07T06:28:03.218Z,100.00
2022-10-07T06:31:09.471Z,100.00
2022-10-07T06:34:13.115Z,100.00
2022-10-07T06:37:16.639Z,100.00
2022-10-07T06:40:22.334Z,100.00
2022-10-07T06:43:26.794Z,100.00
2022-10-07T06:46:31.324Z,100.00
2022-10-07T06:49:35.060Z,100.00
2022-10-07T06:52:42.631Z,100.00
2022-10-07T06:55:51.560Z,100.00
2022-10-07T06:58:55.253Z,100.00
2022-10-07T07:01:59.427Z,100.00
2022-10-07T07:05:04.841Z,100.00
2022-10-07T07:08:08.677Z,100.00
2022-10-07T07:11:33.090Z,100.00
2022-10-07T07:14:38.363Z,100.00
2022-10-07T07:17:42.008Z,100.00
2022-10-07T07:20:45.763Z,100.00
2022-10-07T07:23:49.708Z,100.00
2022-10-07T07:26:54.828Z,100.00
2022-10-07T07:29:58.800Z,100.00
2022-10-07T07:33:04.309Z,100.00
2022-10-07T07:36:16.375Z,100.00
2022-10-07T07:39:21.132Z,100.00
2022-10-07T07:42:28.208Z,100.00
2022-10-07T07:45:36.857Z,100.00
2022-10-07T07:48:40.461Z,100.00
2022-10-07T07:51:44.977Z,100.00
2022-10-07T07:54:49.813Z,100.00
2022-10-07T07:57:54.919Z,100.00
2022-10-07T08:01:03.396Z,100.00
2022-10-07T08:04:07.263Z,100.00
2022-10-07T08:07:12.202Z,100.00
2022-10-07T08:10:15.952Z,100.00
2022-10-07T08:13:20.959Z,100.00
2022-10-07T08:16:28.865Z,100.00
2022-10-07T08:19:32.783Z,100.00
2022-10-07T08:22:36.650Z,100.00
2022-10-07T08:25:40.260Z,100.00
2022-10-07T08:28:45.688Z,100.00
2022-10-07T08:31:49.471Z,100.00
2022-10-07T08:34:53.208Z,100.00
2022-10-07T08:37:57.163Z,100.00
2022-10-07T08:41:23.151Z,100.00
2022-10-07T08:44:35.982Z,100.00
2022-10-07T08:47:45.354Z,100.00
2022-10-07T08:51:00.068Z,100.00
2022-10-07T08:54:03.852Z,100.00
2022-10-07T08:57:21.992Z,100.00
2022-10-07T09:00:27.177Z,100.00
2022-10-07T09:03:44.836Z,100.00
2022-10-07T09:06:56.793Z,100.00
2022-10-07T09:10:16.255Z,100.00
2022-10-07T09:13:24.199Z,100.00
2022-10-07T09:16:37.892Z,100.00
2022-10-07T09:19:49.214Z,100.00
2022-10-07T09:22:57.352Z,100.00
2022-10-07T09:26:01.223Z,100.00
2022-10-07T09:29:04.924Z,100.00
2022-10-07T09:32:14.221Z,100.00
2022-10-07T09:35:22.136Z,100.00
2022-10-07T09:38:38.949Z,100.00
2022-10-07T09:41:43.765Z,100.00
2022-10-07T09:44:53.815Z,100.00
2022-10-07T09:48:07.194Z,100.00
2022-10-07T09:51:16.570Z,100.00
2022-10-07T09:54:22.132Z,100.00
2022-10-07T09:57:31.298Z,100.00
2022-10-07T10:00:45.145Z,100.00
2022-10-07T10:03:50.144Z,100.00
2022-10-07T10:06:57.961Z,100.00
2022-10-07T10:10:17.543Z,100.00
2022-10-07T10:13:34.391Z,100.00
2022-10-07T10:16:40.552Z,100.00
2022-10-07T10:19:45.696Z,100.00
2022-10-07T10:22:49.225Z,100.00
2022-10-07T10:26:30.842Z,100.00
2022-10-07T10:29:52.676Z,100.00
2022-10-07T10:33:31.843Z,100.00
2022-10-07T10:36:46.840Z,100.00
2022-10-07T10:40:04.216Z,100.00
2022-10-07T10:43:27.459Z,100.00
2022-10-07T10:46:51.065Z,100.00
2022-10-07T10:50:17.477Z,100.00
2022-10-07T10:53:40.522Z,100.00
2022-10-07T10:56:53.977Z,100.00
2022-10-07T11:00:09.502Z,100.00
2022-10-07T11:03:49.001Z,100.00
2022-10-07T11:07:01.486Z,100.00
2022-10-07T11:10:19.307Z,100.00
2022-10-07T11:13:35.599Z,100.00
2022-10-07T11:16:47.143Z,100.00
2022-10-07T11:20:04.350Z,100.00
2022-10-07T11:23:21.715Z,100.00
2022-10-07T11:26:35.451Z,100.00
2022-10-07T11:29:49.372Z,100.00
2022-10-07T11:33:01.934Z,100.00
2022-10-07T11:36:17.144Z,100.00
2022-10-07T11:39:22.371Z,100.00
2022-10-07T11:42:32.669Z,100.00
2022-10-07T11:45:50.000Z,100.00
2022-10-07T11:49:03.246Z,100.00
2022-10-07T11:52:12.159Z,100.00
2022-10-07T11:55:26.728Z,100.00
2022-10-07T11:58:37.550Z,100.00
2022-10-07T12:01:55.544Z,100.00
2022-10-07T12:05:00.708Z,100.00
2022-10-07T12:08:33.231Z,100.00
2022-10-07T12:11:52.116Z,99.56
2022-10-07T12:15:05.291Z,99.53
2022-10-07T12:18:31.047Z,100.00
2022-10-07T12:22:17.851Z,100.00
2022-10-07T12:25:32.537Z,100.00
2022-10-07T12:28:48.625Z,100.00
2022-10-07T12:31:53.675Z,100.00
2022-10-07T12:34:57.379Z,100.00
2022-10-07T12:38:05.574Z,100.00
2022-10-07T12:41:27.031Z,98.77
2022-10-07T12:44:41.518Z,99.07
2022-10-07T12:47:48.429Z,100.00
2022-10-07T12:50:57.129Z,100.00
2022-10-07T12:54:01.895Z,100.00
2022-10-07T12:57:13.382Z,100.00
2022-10-07T13:00:20.127Z,100.00
2022-10-07T13:03:58.607Z,100.00
2022-10-07T13:07:38.839Z,100.00
2022-10-07T13:11:12.693Z,100.00
2022-10-07T13:14:26.826Z,100.00
2022-10-07T13:17:45.413Z,100.00
2022-10-07T13:21:13.770Z,100.00
2022-10-07T13:24:24.341Z,99.63
2022-10-07T13:27:34.538Z,99.77
2022-10-07T13:30:42.086Z,100.00
2022-10-07T13:33:46.155Z,100.00
2022-10-07T13:36:51.253Z,100.00
2022-10-07T13:39:54.886Z,100.00
2022-10-07T13:43:02.203Z,100.00
2022-10-07T13:46:09.981Z,100.00
2022-10-07T13:49:27.245Z,100.00
2022-10-07T13:52:39.865Z,99.15
2022-10-07T13:55:45.859Z,98.29
2022-10-07T13:58:50.409Z,99.48
2022-10-07T14:01:58.307Z,99.64
2022-10-07T14:05:05.276Z,99.14
2022-10-07T14:08:21.305Z,98.30
2022-10-07T14:11:25.027Z,97.84
2022-10-07T14:14:34.839Z,99.03
2022-10-07T14:17:45.044Z,98.76
2022-10-07T14:20:53.857Z,99.19
2022-10-07T14:23:58.787Z,98.67
2022-10-07T14:27:02.376Z,99.36
2022-10-07T14:30:53.277Z,99.52
2022-10-07T14:34:26.928Z,99.15
2022-10-07T14:37:31.914Z,99.69
2022-10-07T14:40:38.759Z,99.74
2022-10-07T14:43:44.816Z,100.00
2022-10-07T14:46:48.594Z,100.00
2022-10-07T14:49:53.738Z,100.00
2022-10-07T14:52:58.243Z,100.00
2022-10-07T14:56:03.259Z,100.00
2022-10-07T14:59:15.093Z,100.00
2022-10-07T15:02:19.518Z,100.00
2022-10-07T15:05:23.725Z,100.00
2022-10-07T15:08:27.406Z,100.00
2022-10-07T15:11:32.891Z,100.00
2022-10-07T15:14:36.488Z,100.00
2022-10-07T15:17:40.893Z,100.00
2022-10-07T15:20:45.055Z,100.00
2022-10-07T15:23:53.193Z,100.00
2022-10-07T15:26:58.211Z,100.00
2022-10-07T15:30:02.165Z,100.00
2022-10-07T15:33:05.850Z,100.00
2022-10-07T15:36:09.570Z,100.00
2022-10-07T15:39:13.471Z,100.00
2022-10-07T15:42:19.838Z,100.00
2022-10-07T15:45:46.525Z,100.00
2022-10-07T15:48:50.218Z,100.00
2022-10-07T15:51:55.612Z,100.00
2022-10-07T15:55:07.791Z,100.00
2022-10-07T15:58:13.573Z,100.00
2022-10-07T16:01:18.870Z,100.00
2022-10-07T16:04:22.751Z,100.00
2022-10-07T16:07:26.542Z,100.00
2022-10-07T16:10:30.256Z,100.00
2022-10-07T16:13:39.113Z,100.00
2022-10-07T16:16:43.338Z,100.00
2022-10-07T16:19:48.173Z,100.00
2022-10-07T16:22:51.879Z,100.00
2022-10-07T16:25:57.152Z,100.00
2022-10-07T16:29:21.866Z,100.00
2022-10-07T16:32:25.514Z,100.00
2022-10-07T16:35:31.400Z,100.00
2022-10-07T16:38:34.942Z,100.00
2022-10-07T16:41:41.542Z,100.00
2022-10-07T16:44:50.637Z,100.00
2022-10-07T16:47:56.304Z,100.00
2022-10-07T16:51:00.862Z,100.00
2022-10-07T16:54:07.828Z,100.00
2022-10-07T16:57:11.354Z,100.00
2022-10-07T17:00:17.582Z,100.00
2022-10-07T17:03:21.445Z,100.00
2022-10-07T17:06:27.889Z,100.00
2022-10-07T17:09:31.410Z,100.00
2022-10-07T17:12:35.076Z,100.00
2022-10-07T17:15:42.288Z,100.00
2022-10-07T17:18:46.100Z,100.00
2022-10-07T17:21:51.240Z,100.00
2022-10-07T17:24:55.141Z,100.00
2022-10-07T17:27:58.760Z,100.00
2022-10-07T17:31:07.597Z,100.00
2022-10-07T17:34:12.819Z,100.00
2022-10-07T17:37:16.436Z,100.00
2022-10-07T17:40:20.129Z,100.00
2022-10-07T17:43:23.755Z,100.00
2022-10-07T17:46:31.454Z,100.00
2022-10-07T17:49:35.740Z,100.00
2022-10-07T17:52:39.311Z,100.00
2022-10-07T17:55:52.247Z,100.00
2022-10-07T17:58:56.902Z,100.00
2022-10-07T18:02:01.918Z,100.00
2022-10-07T18:05:06.572Z,100.00
2022-10-07T18:08:10.487Z,100.00
2022-10-07T18:11:15.651Z,100.00
2022-10-07T18:14:38.098Z,100.00
2022-10-07T18:17:43.222Z,100.00
2022-10-07T18:20:47.018Z,100.00
2022-10-07T18:23:51.344Z,100.00
2022-10-07T18:26:55.332Z,100.00
2022-10-07T18:29:59.163Z,100.00
2022-10-07T18:33:04.245Z,100.00
2022-10-07T18:36:11.608Z,100.00
2022-10-07T18:39:15.307Z,100.00
2022-10-07T18:42:18.891Z,100.00
2022-10-07T18:45:23.407Z,100.00
2022-10-07T18:48:31.842Z,100.00
2022-10-07T18:51:35.483Z,100.00
2022-10-07T18:54:39.065Z,100.00
2022-10-07T18:57:42.651Z,100.00
2022-10-07T19:00:46.679Z,100.00
2022-10-07T19:03:56.700Z,100.00
2022-10-07T19:07:00.381Z,100.00
2022-10-07T19:10:04.014Z,100.00
2022-10-07T19:13:30.564Z,100.00
2022-10-07T19:16:37.332Z,100.00
2022-10-07T19:19:42.449Z,100.00
2022-10-07T19:22:46.576Z,100.00
2022-10-07T19:25:50.924Z,100.00
2022-10-07T19:28:55.967Z,100.00
2022-10-07T19:32:01.439Z,100.00
2022-10-07T19:35:10.450Z,100.00
2022-10-07T19:38:14.232Z,100.00
2022-10-07T19:41:19.353Z,100.00
2022-10-07T19:44:23.013Z,100.00
2022-10-07T19:47:37.419Z,100.00
2022-10-07T19:50:42.367Z,100.00
2022-10-07T19:53:47.460Z,100.00
2022-10-07T19:56:51.131Z,100.00
2022-10-07T19:59:55.449Z,100.00
2022-10-07T20:02:59.527Z,100.00
2022-10-07T20:06:07.939Z,100.00
2022-10-07T20:09:15.523Z,100.00
2022-10-07T20:12:19.573Z,100.00
2022-10-07T20:15:23.229Z,100.00
2022-10-07T20:18:26.958Z,100.00
2022-10-07T20:21:32.524Z,100.00
2022-10-07T20:24:36.268Z,100.00
2022-10-07T20:27:39.980Z,100.00
2022-10-07T20:30:43.594Z,100.00
2022-10-07T20:33:50.126Z,100.00
2022-10-07T20:36:56.199Z,100.00
2022-10-07T20:40:17.267Z,100.00
2022-10-07T20:43:20.885Z,100.00
2022-10-07T20:46:24.637Z,100.00
2022-10-07T20:49:30.101Z,100.00
2022-10-07T20:52:37.103Z,100.00
2022-10-07T20:55:40.795Z,100.00
2022-10-07T20:58:45.187Z,100.00
2022-10-07T21:01:48.810Z,100.00
2022-10-07T21:04:52.488Z,100.00
2022-10-07T21:07:58.541Z,100.00
2022-10-07T21:11:07.669Z,100.00
2022-10-07T21:14:12.344Z,100.00
2022-10-07T21:17:16.781Z,100.00
2022-10-07T21:20:20.611Z,100.00
2022-10-07T21:23:28.541Z,100.00
2022-10-07T21:26:32.112Z,100.00
2022-10-07T21:29:40.385Z,100.00
2022-10-07T21:32:44.959Z,100.00
2022-10-07T21:35:48.678Z,100.00
2022-10-07T21:39:00.413Z,100.00
2022-10-07T21:42:04.277Z,100.00
2022-10-07T21:45:09.775Z,100.00
2022-10-07T21:48:13.328Z,100.00
2022-10-07T21:51:17.583Z,100.00
2022-10-07T21:54:22.558Z,100.00
2022-10-07T21:57:26.332Z,100.00
2022-10-07T22:00:29.908Z,100.00
2022-10-07T22:03:34.246Z,100.00
2022-10-07T22:06:55.644Z,100.00
2022-10-07T22:10:01.024Z,100.00
2022-10-07T22:13:04.992Z,100.00
2022-10-07T22:16:14.823Z,100.00
2022-10-07T22:19:18.800Z,100.00
2022-10-07T22:22:22.618Z,100.00
2022-10-07T22:25:27.652Z,100.00
2022-10-07T22:28:33.129Z,100.00
2022-10-07T22:31:37.337Z,100.00
2022-10-07T22:34:58.776Z,100.00
2022-10-07T22:38:03.000Z,100.00
2022-10-07T22:41:11.182Z,100.00
2022-10-07T22:44:15.295Z,100.00
2022-10-07T22:47:19.874Z,100.00
2022-10-07T22:50:23.529Z,100.00
2022-10-07T22:53:27.122Z,100.00
2022-10-07T22:56:32.068Z,100.00
2022-10-07T22:59:36.648Z,100.00
2022-10-07T23:02:40.239Z,100.00
2022-10-07T23:05:43.927Z,100.00
2022-10-07T23:08:49.238Z,100.00
2022-10-07T23:11:54.292Z,100.00
2022-10-07T23:14:57.860Z,100.00
2022-10-07T23:18:01.443Z,100.00
2022-10-07T23:21:07.980Z,100.00
2022-10-07T23:24:12.560Z,100.00
2022-10-07T23:27:17.439Z,100.00
2022-10-07T23:30:20.965Z,100.00
2022-10-07T23:33:24.589Z,100.00
2022-10-07T23:36:29.253Z,100.00
2022-10-07T23:39:34.456Z,100.00
2022-10-07T23:42:39.534Z,100.00
2022-10-07T23:45:59.242Z,100.00
2022-10-07T23:49:03.810Z,100.00
2022-10-07T23:52:07.439Z,100.00
2022-10-07T23:55:12.385Z,100.00
2022-10-07T23:58:20.326Z,100.00
